FAHS/HDS METAR and TAF weather

Enter ICAO airport designator
Station Type Date Time Source
FAHS METAR 2020/01/22 21:00 UTC NOAA

FAHS 222100Z AUTO 27002KT //// // ////// 20/19 Q1014


Station Type Date Time Source
FAHS Decoded METAR 2020/01/22 21:00 UTC NOAA

Hoedspruit, South Africa (FAHS) 24-22S 031-02E 500M
Jan 22, 2020 - 04:00 PM EST / 2020.01.22 2100 UTC
Wind: from the W (270 degrees) at 2 MPH (2 KT):0
Temperature: 68 F (20 C)
Dew Point: 66 F (19 C)
Relative Humidity: 93%
Pressure (altimeter): 29.94 in. Hg (1014 hPa)
ob: FAHS 222100Z AUTO 27002KT //// // ////// 20/19 Q1014
cycle: 21

Station Type Date Time Source
FAHS TAF 2017/05/23 04:01 UTC NOAA

TAF FAHS 230300Z 2304/2315 VRB02KT CAVOK TX29/2312ZTN12/2304Z

Example: see airport list